Terminal Aerodrome Forecast
Issued by NWS

Home | Current Version | Previous Version | Text Only | Print | Product List | Glossary On
Versions: 1 2 3 4 5 6 7 8 9 10 11 12 13 14 15 16 17 18
000
FTUS45 KABQ 010800 AAB
TAFROW
TAF AMD
KROW 010818Z 0108/0206 20005KT 2SM BR OVC006
      TEMPO 0108/0112 1/4SM FG VV002
     FM011200 36006KT P6SM SCT010
      TEMPO 0112/0115 2SM BR BKN005
     FM012200 08005KT P6SM SCT035=

USA.gov is the U.S. government's official web portal to all federal, state and local government web resources and services.